Time;durP1;ratioP1;P1;durP2;ratioP2;P2;SDS_P1;SDS_P2;PMS_P1;PMS_P2;Temp;Humidity;BMP_temperature;BMP_pressure;BME280_temperature;BME280_humidity;BME280_pressure;Samples;Min_cycle;Max_cycle;Signal;HPM_P1;HPM_P2
2022/07/22 00:01:47;;;;;;;6.57;5.37;;;22.00;93.80;;;;;;7387461;19;20388;-47
2022/07/22 00:04:17;;;;;;;10.27;5.97;;;22.20;93.10;;;;;;7384606;19;20383;-46
2022/07/22 00:06:46;;;;;;;6.10;5.40;;;22.40;92.70;;;;;;7378696;19;20797;-47
2022/07/22 00:09:16;;;;;;;7.20;5.93;;;22.30;93.10;;;;;;7382602;19;20378;-46
2022/07/22 00:11:48;;;;;;;5.53;4.97;;;22.10;94.10;;;;;;7384916;19;20412;-47
2022/07/22 00:14:17;;;;;;;8.77;6.30;;;22.20;93.80;;;;;;7378968;19;22519;-46
2022/07/22 00:16:47;;;;;;;6.53;5.93;;;22.10;94.20;;;;;;7384253;19;20396;-46
2022/07/22 00:19:16;;;;;;;8.90;5.60;;;21.80;95.30;;;;;;7384327;19;20948;-47
2022/07/22 00:21:46;;;;;;;6.80;5.57;;;21.90;94.40;;;;;;7384199;19;20415;-50
2022/07/22 00:24:15;;;;;;;6.23;5.63;;;21.90;94.00;;;;;;7383627;19;20765;-50
2022/07/22 00:26:48;;;;;;;5.60;5.10;;;21.90;94.30;;;;;;7382059;19;20395;-50
2022/07/22 00:29:17;;;;;;;8.83;6.40;;;21.60;95.10;;;;;;7385199;19;20380;-50
2022/07/22 00:31:49;;;;;;;6.20;5.43;;;21.70;95.30;;;;;;7380255;19;20372;-50
2022/07/22 00:34:21;;;;;;;6.47;5.87;;;21.60;95.50;;;;;;7384168;19;20384;-52
2022/07/22 00:36:50;;;;;;;6.53;5.93;;;21.40;96.40;;;;;;7382582;19;20942;-50
2022/07/22 00:39:21;;;;;;;6.70;6.00;;;21.60;96.10;;;;;;7379786;19;20380;-50
2022/07/22 00:41:53;;;;;;;8.20;5.90;;;21.60;95.80;;;;;;7379870;19;20387;-50
2022/07/22 00:44:23;;;;;;;6.17;5.57;;;21.60;96.10;;;;;;7386016;19;21570;-51
2022/07/22 00:46:53;;;;;;;5.93;5.30;;;21.50;96.30;;;;;;7381421;19;21091;-50
2022/07/22 00:49:22;;;;;;;9.37;6.30;;;21.40;96.30;;;;;;7376495;19;20960;-52
2022/07/22 00:51:52;;;;;;;6.47;5.80;;;21.40;96.30;;;;;;7384760;19;20380;-50
2022/07/22 00:54:22;;;;;;;6.67;5.77;;;21.30;96.80;;;;;;7382920;19;20391;-50
2022/07/22 00:56:54;;;;;;;7.30;5.83;;;21.30;96.70;;;;;;7381358;19;20368;-50
2022/07/22 00:59:26;;;;;;;6.00;5.50;;;21.40;96.60;;;;;;7377136;19;20775;-50
2022/07/22 01:01:56;;;;;;;7.67;6.00;;;21.60;96.00;;;;;;7383746;19;20389;-50
2022/07/22 01:04:27;;;;;;;6.73;6.13;;;21.70;95.90;;;;;;7375303;19;20373;-50
2022/07/22 01:06:57;;;;;;;8.63;5.73;;;21.50;96.50;;;;;;7379348;19;20799;-50
2022/07/22 01:09:26;;;;;;;8.40;6.37;;;21.40;96.60;;;;;;7379134;19;20405;-51
2022/07/22 01:11:58;;;;;;;6.17;5.57;;;21.40;97.10;;;;;;7379599;19;20805;-50
2022/07/22 01:14:28;;;;;;;7.27;5.97;;;21.20;98.20;;;;;;7378864;19;20368;-50
2022/07/22 01:17:00;;;;;;;8.70;6.00;;;21.00;99.00;;;;;;7376121;19;20723;-51
2022/07/22 01:19:30;;;;;;;7.17;6.27;;;20.90;99.60;;;;;;7380116;19;20381;-51
2022/07/22 01:22:04;;;;;;;6.67;5.97;;;20.80;99.90;;;;;;7384082;19;20422;-51
2022/07/22 01:24:34;;;;;;;7.70;6.60;;;21.10;99.50;;;;;;7367452;19;20420;-50
2022/07/22 01:27:04;;;;;;;7.40;6.57;;;21.10;98.90;;;;;;7378395;19;20396;-50
2022/07/22 01:29:36;;;;;;;7.07;6.20;;;20.90;99.90;;;;;;7385305;19;20440;-50
2022/07/22 01:32:07;;;;;;;6.27;5.70;;;20.80;99.90;;;;;;7378433;19;20384;-51
2022/07/22 01:34:36;;;;;;;6.90;6.20;;;20.90;99.90;;;;;;7384589;19;20372;-50
2022/07/22 01:37:10;;;;;;;7.17;6.47;;;20.80;99.90;;;;;;7380357;19;20430;-50
2022/07/22 01:39:40;;;;;;;6.87;6.17;;;20.80;99.90;;;;;;7377511;19;20388;-50
2022/07/22 01:42:10;;;;;;;11.53;7.80;;;20.70;99.90;;;;;;7379189;19;21022;-50
2022/07/22 01:44:40;;;;;;;9.23;7.10;;;20.70;99.90;;;;;;7377155;19;20960;-50
2022/07/22 01:47:13;;;;;;;7.23;6.53;;;20.80;99.90;;;;;;7382272;19;20399;-50
2022/07/22 01:49:42;;;;;;;7.30;6.40;;;20.70;99.90;;;;;;7382621;19;20372;-50
2022/07/22 01:52:15;;;;;;;7.70;6.90;;;20.40;99.90;;;;;;7373222;19;20379;-51
2022/07/22 01:54:46;;;;;;;8.40;6.83;;;20.40;99.90;;;;;;7378669;19;20913;-51
2022/07/22 01:57:16;;;;;;;6.63;5.53;;;20.50;99.90;;;;;;7382033;19;21006;-50
2022/07/22 01:59:50;;;;;;;7.03;6.33;;;20.70;99.90;;;;;;7375785;19;20446;-50
2022/07/22 02:02:19;;;;;;;6.47;5.73;;;20.70;99.90;;;;;;7380476;19;20720;-50
2022/07/22 02:04:50;;;;;;;7.10;6.20;;;20.70;99.90;;;;;;7374860;19;20379;-50
2022/07/22 02:07:22;;;;;;;7.70;6.30;;;20.70;99.90;;;;;;7372556;19;20767;-50
2022/07/22 02:09:51;;;;;;;9.13;7.57;;;20.80;99.90;;;;;;7376306;19;20978;-50
2022/07/22 02:12:21;;;;;;;7.93;6.43;;;20.90;99.90;;;;;;7377985;19;20408;-51
2022/07/22 02:14:51;;;;;;;8.17;6.90;;;21.10;99.90;;;;;;7376823;19;20711;-50
2022/07/22 02:17:21;;;;;;;7.17;6.40;;;21.30;99.90;;;;;;7375566;19;20375;-50
2022/07/22 02:19:50;;;;;;;8.73;6.40;;;21.20;99.90;;;;;;7379157;19;20376;-50
2022/07/22 02:22:25;;;;;;;7.27;6.67;;;20.90;99.90;;;;;;7374642;19;20385;-50
2022/07/22 02:24:55;;;;;;;6.50;6.00;;;21.00;99.90;;;;;;7378876;19;20657;-51
2022/07/22 02:27:24;;;;;;;8.07;7.37;;;21.20;99.90;;;;;;7376841;19;21125;-51
2022/07/22 02:29:54;;;;;;;7.20;6.50;;;21.10;99.90;;;;;;7373766;19;20762;-50
2022/07/22 02:32:23;;;;;;;8.07;7.00;;;20.70;99.90;;;;;;7376312;19;20420;-50
2022/07/22 02:34:53;;;;;;;9.03;7.90;;;20.50;99.90;;;;;;7377608;19;20387;-50
2022/07/22 02:37:25;;;;;;;7.10;6.40;;;20.80;99.90;;;;;;7375829;19;20479;-51
2022/07/22 02:39:54;;;;;;;8.03;7.20;;;20.70;99.90;;;;;;7378875;19;20387;-50
2022/07/22 02:42:24;;;;;;;10.20;7.30;;;20.50;99.90;;;;;;7377016;19;21713;-50
2022/07/22 02:44:55;;;;;;;8.13;7.33;;;20.50;99.90;;;;;;7375928;19;20392;-50
2022/07/22 02:47:24;;;;;;;9.70;7.20;;;20.50;99.90;;;;;;7378592;19;20381;-50
2022/07/22 02:49:54;;;;;;;9.47;7.00;;;20.40;99.90;;;;;;7377760;19;20372;-51
2022/07/22 02:52:28;;;;;;;8.70;7.80;;;20.40;99.90;;;;;;7379197;19;20364;-51
2022/07/22 02:54:57;;;;;;;8.03;7.23;;;20.40;99.90;;;;;;7375162;19;20379;-50
2022/07/22 02:57:27;;;;;;;11.53;6.83;;;20.30;99.90;;;;;;7378276;19;20368;-51
2022/07/22 02:59:56;;;;;;;7.93;7.00;;;20.30;99.90;;;;;;7373862;19;21709;-50
2022/07/22 03:02:26;;;;;;;8.03;7.23;;;20.20;99.90;;;;;;7376173;19;20436;-50
2022/07/22 03:04:55;;;;;;;9.10;7.57;;;20.50;99.90;;;;;;7369978;19;20371;-50
2022/07/22 03:07:28;;;;;;;10.07;7.07;;;20.40;99.90;;;;;;7373638;19;20913;-50
2022/07/22 03:09:57;;;;;;;9.30;7.37;;;20.30;99.90;;;;;;7378494;19;20368;-50
2022/07/22 03:16:04;;;;;;;8.70;7.13;;;20.00;99.90;;;;;;7367042;19;20383;-50
2022/07/22 03:18:33;;;;;;;9.67;7.83;;;20.10;99.90;;;;;;7377779;19;20875;-50
2022/07/22 03:21:03;;;;;;;10.57;9.07;;;20.10;99.90;;;;;;7372852;19;20507;-50
2022/07/22 03:23:35;;;;;;;9.63;8.33;;;20.00;99.90;;;;;;7375446;19;20360;-51
2022/07/22 03:26:05;;;;;;;9.73;8.30;;;19.90;99.90;;;;;;7372162;19;20992;-50
2022/07/22 03:28:35;;;;;;;9.90;8.77;;;19.80;99.90;;;;;;7377120;19;20726;-50
2022/07/22 03:34:44;;;;;;;11.87;7.50;;;19.90;99.90;;;;;;7377936;19;20778;-50
2022/07/22 03:37:14;;;;;;;10.37;8.57;;;20.10;99.90;;;;;;7380531;19;20996;-50
2022/07/22 03:39:48;;;;;;;9.07;8.07;;;20.10;99.90;;;;;;7383383;19;20368;-51
2022/07/22 03:42:39;;;;;;;11.10;8.50;;;20.10;99.90;;;;;;7385473;19;20742;-50
2022/07/22 03:45:12;;;;;;;9.47;8.17;;;20.30;99.90;;;;;;7373338;19;22175;-50
2022/07/22 03:47:44;;;;;;;7.73;7.03;;;20.20;99.90;;;;;;7370134;19;20390;-50
2022/07/22 03:50:13;;;;;;;9.97;7.80;;;20.20;99.90;;;;;;7380352;19;21073;-50
2022/07/22 03:52:43;;;;;;;10.83;9.30;;;19.90;99.90;;;;;;7382387;19;20383;-50
2022/07/22 03:55:17;;;;;;;9.73;8.03;;;20.20;99.90;;;;;;7383828;19;20952;-50
2022/07/22 03:57:48;;;;;;;9.47;8.57;;;20.40;99.90;;;;;;7376731;19;21021;-50
2022/07/22 04:00:26;;;;;;;8.90;8.10;;;20.50;99.90;;;;;;7378089;19;21782;-50
2022/07/22 04:02:55;;;;;;;11.17;8.90;;;20.40;99.90;;;;;;7376070;19;20394;-50
2022/07/22 04:05:45;;;;;;;13.63;8.97;;;20.30;99.90;;;;;;7381874;19;20388;-50
2022/07/22 04:08:19;;;;;;;10.70;8.10;;;20.40;99.90;;;;;;7383488;19;20494;-51
2022/07/22 04:10:52;;;;;;;9.50;8.60;;;20.00;99.90;;;;;;7380998;19;20383;-46
2022/07/22 04:13:22;;;;;;;9.47;8.47;;;19.70;99.90;;;;;;7379363;19;20886;-46
2022/07/22 04:15:56;;;;;;;8.90;8.00;;;19.80;99.90;;;;;;7380544;19;20374;-46
2022/07/22 04:18:26;;;;;;;12.83;8.70;;;19.90;99.90;;;;;;7376292;19;20427;-46
2022/07/22 04:20:57;;;;;;;12.60;9.07;;;19.80;99.90;;;;;;7377205;19;20387;-46
2022/07/22 04:23:30;;;;;;;11.97;8.30;;;20.00;99.90;;;;;;7384811;19;20889;-46
2022/07/22 04:26:22;;;;;;;11.50;9.07;;;20.20;99.90;;;;;;7379130;19;20981;-46
2022/07/22 04:28:52;;;;;;;9.93;8.53;;;20.20;99.90;;;;;;7377101;19;20408;-46
2022/07/22 04:31:21;;;;;;;9.53;8.33;;;20.00;99.90;;;;;;7373431;19;20383;-46
2022/07/22 04:33:56;;;;;;;11.87;9.03;;;20.00;99.90;;;;;;7368413;19;20363;-46
2022/07/22 04:36:26;;;;;;;10.23;8.70;;;20.10;99.90;;;;;;7379233;19;20395;-46
2022/07/22 04:38:58;;;;;;;10.27;8.50;;;20.10;99.90;;;;;;7382704;19;20452;-46
2022/07/22 04:41:31;;;;;;;14.27;10.07;;;20.10;99.90;;;;;;7374417;19;21001;-51
2022/07/22 04:44:01;;;;;;;11.43;9.17;;;20.10;99.90;;;;;;7381643;19;20387;-50
2022/07/22 04:46:33;;;;;;;11.17;9.30;;;20.10;99.90;;;;;;7378909;19;20372;-51
2022/07/22 04:49:03;;;;;;;8.90;7.90;;;20.20;99.90;;;;;;7375436;19;20751;-50
2022/07/22 04:51:33;;;;;;;10.50;9.10;;;20.30;99.90;;;;;;7381186;19;20372;-51
2022/07/22 04:54:07;;;;;;;10.70;9.60;;;20.40;99.90;;;;;;7380095;19;20401;-51
2022/07/22 04:56:44;;;;;;;11.53;10.23;;;20.40;99.90;;;;;;7378316;19;20912;-51
2022/07/22 04:59:14;;;;;;;12.93;10.20;;;20.60;99.90;;;;;;7376674;19;20372;-51
2022/07/22 05:01:44;;;;;;;12.80;9.93;;;20.70;99.90;;;;;;7378537;19;20412;-51
2022/07/22 05:04:13;;;;;;;11.03;9.83;;;20.70;99.90;;;;;;7377589;19;20391;-50
2022/07/22 05:06:45;;;;;;;10.20;9.20;;;20.70;99.90;;;;;;7375908;19;20472;-51
2022/07/22 05:09:15;;;;;;;11.67;10.47;;;20.80;99.90;;;;;;7382165;19;20863;-51
2022/07/22 05:11:49;;;;;;;20.20;11.17;;;20.80;99.90;;;;;;7370969;19;20376;-51
2022/07/22 05:14:22;;;;;;;13.23;10.83;;;20.90;99.90;;;;;;7374735;19;20380;-50
2022/07/22 05:16:52;;;;;;;12.27;10.20;;;20.90;99.90;;;;;;7376722;19;21013;-51
2022/07/22 05:19:21;;;;;;;13.77;10.53;;;21.00;99.90;;;;;;7379949;19;20932;-46
2022/07/22 05:21:51;;;;;;;11.03;9.93;;;21.00;99.90;;;;;;7377862;19;20808;-46
2022/07/22 05:24:20;;;;;;;14.33;10.67;;;21.10;99.90;;;;;;7380829;19;20961;-46
2022/07/22 05:26:56;;;;;;;11.27;10.13;;;21.10;99.90;;;;;;7226800;19;3030796;-47
2022/07/22 05:29:26;;;;;;;11.60;10.40;;;21.20;99.90;;;;;;7380830;19;20138;-47
2022/07/22 05:31:55;;;;;;;13.70;10.83;;;21.30;99.90;;;;;;7381881;19;21096;-47
2022/07/22 05:34:25;;;;;;;12.33;10.20;;;21.40;99.90;;;;;;7383028;19;20955;-47
2022/07/22 05:36:57;;;;;;;12.50;10.93;;;21.50;99.90;;;;;;7380892;19;20914;-47
2022/07/22 05:39:26;;;;;;;14.03;11.23;;;21.70;99.90;;;;;;7385831;19;20860;-46
2022/07/22 05:42:02;;;;;;;10.80;9.60;;;21.80;99.90;;;;;;7375437;19;20416;-46
2022/07/22 05:44:31;;;;;;;11.10;9.90;;;21.80;99.90;;;;;;7373663;19;20368;-46
2022/07/22 05:47:01;;;;;;;13.60;10.00;;;21.80;99.90;;;;;;7377643;19;20890;-47
2022/07/22 05:49:31;;;;;;;13.03;10.20;;;21.80;99.90;;;;;;7372382;19;20379;-50
2022/07/22 05:52:07;;;;;;;17.90;12.67;;;21.90;99.90;;;;;;7376391;19;21190;-52
2022/07/22 05:54:39;;;;;;;19.77;12.30;;;21.90;99.90;;;;;;7365824;19;20963;-50
2022/07/22 05:57:11;;;;;;;11.70;10.13;;;22.10;99.90;;;;;;7372119;19;20383;-51
2022/07/22 05:59:42;;;;;;;14.00;10.77;;;22.00;99.90;;;;;;7377985;19;20420;-50
2022/07/22 06:02:12;;;;;;;14.17;11.07;;;22.00;99.90;;;;;;7385986;19;20380;-51
2022/07/22 06:04:44;;;;;;;11.53;10.10;;;22.10;99.90;;;;;;7386792;19;20368;-50
2022/07/22 06:07:14;;;;;;;12.57;9.87;;;22.10;99.90;;;;;;7385507;19;20380;-51
2022/07/22 06:09:46;;;;;;;31.57;14.87;;;22.10;99.90;;;;;;7384860;19;20376;-50
2022/07/22 06:12:19;;;;;;;13.83;10.50;;;22.30;99.60;;;;;;7382990;19;20472;-51
2022/07/22 06:14:49;;;;;;;10.63;9.53;;;22.30;98.90;;;;;;7381861;19;20421;-51
2022/07/22 06:17:18;;;;;;;21.13;12.60;;;22.40;99.20;;;;;;7384342;19;20387;-51
2022/07/22 06:19:48;;;;;;;99.73;22.33;;;22.60;98.50;;;;;;7386600;19;20387;-47
2022/07/22 06:22:18;;;;;;;35.87;14.80;;;22.80;98.20;;;;;;7385063;19;20399;-47
2022/07/22 06:24:48;;;;;;;14.20;10.03;;;23.00;97.10;;;;;;7385954;19;20940;-47
2022/07/22 06:27:21;;;;;;;11.37;10.00;;;23.10;96.00;;;;;;7381365;19;20924;-47
2022/07/22 06:29:52;;;;;;;11.30;9.73;;;23.20;95.40;;;;;;7383646;19;20412;-49
2022/07/22 06:32:22;;;;;;;12.80;9.23;;;23.30;95.40;;;;;;7386227;19;20380;-47
2022/07/22 06:34:53;;;;;;;11.23;9.93;;;23.40;95.30;;;;;;7384959;19;20380;-47
2022/07/22 06:37:22;;;;;;;12.20;10.00;;;23.40;94.20;;;;;;7383704;19;20364;-47
2022/07/22 06:39:52;;;;;;;11.10;10.07;;;23.50;93.50;;;;;;7385902;19;20471;-47
2022/07/22 06:42:44;;;;;;;14.03;10.77;;;23.50;93.40;;;;;;7378960;19;20369;-47
2022/07/22 06:45:36;;;;;;;12.17;10.07;;;23.70;93.40;;;;;;7386032;19;20376;-47
2022/07/22 06:48:09;;;;;;;14.50;9.20;;;23.60;92.70;;;;;;7384878;19;20402;-47
2022/07/22 06:50:39;;;;;;;11.43;9.50;;;23.60;93.20;;;;;;7379816;19;20915;-50
2022/07/22 06:53:14;;;;;;;15.70;11.00;;;23.60;93.00;;;;;;7384126;19;20376;-50
2022/07/22 06:55:45;;;;;;;12.50;9.30;;;23.70;92.60;;;;;;7380791;19;20384;-51
2022/07/22 06:58:20;;;;;;;13.90;11.70;;;23.80;91.80;;;;;;7383355;19;21082;-51
2022/07/22 07:00:50;;;;;;;11.67;9.93;;;24.00;91.70;;;;;;7382300;19;21194;-51
2022/07/22 07:03:40;;;;;;;11.40;10.20;;;24.10;90.90;;;;;;7380982;19;20759;-52
2022/07/22 07:06:13;;;;;;;12.70;11.40;;;24.30;90.40;;;;;;7380059;19;20409;-50
2022/07/22 07:09:01;;;;;;;13.17;10.10;;;24.20;90.20;;;;;;7383002;19;20397;-50
2022/07/22 07:11:31;;;;;;;11.53;10.40;;;24.30;90.30;;;;;;7371586;19;20902;-48
2022/07/22 07:14:04;;;;;;;13.07;10.13;;;24.30;88.80;;;;;;7361658;19;20369;-48
2022/07/22 07:16:33;;;;;;;10.33;9.17;;;24.40;88.60;;;;;;7379127;19;21128;-47
2022/07/22 07:19:04;;;;;;;13.93;11.00;;;24.60;86.70;;;;;;7371898;19;20377;-48
2022/07/22 07:21:34;;;;;;;11.83;9.23;;;24.60;86.60;;;;;;7371693;19;20390;-47
2022/07/22 07:24:04;;;;;;;12.17;9.37;;;24.50;86.60;;;;;;7373199;19;20395;-47
2022/07/22 07:26:33;;;;;;;9.33;8.53;;;24.60;87.10;;;;;;7377719;19;20409;-47
2022/07/22 07:29:06;;;;;;;11.37;10.20;;;24.70;86.30;;;;;;7377691;19;20364;-48
2022/07/22 07:31:37;;;;;;;11.80;9.20;;;24.80;84.60;;;;;;7375056;19;21084;-47
2022/07/22 07:34:13;;;;;;;9.10;8.20;;;24.90;83.10;;;;;;7371177;19;20371;-47
2022/07/22 07:36:42;;;;;;;11.03;8.87;;;25.20;83.00;;;;;;7374895;19;20388;-47
2022/07/22 07:39:14;;;;;;;10.77;9.67;;;25.30;81.80;;;;;;7375587;19;20364;-48
2022/07/22 07:41:44;;;;;;;10.80;9.30;;;25.50;80.80;;;;;;7379685;19;20937;-49
2022/07/22 07:44:20;;;;;;;14.30;10.23;;;25.40;82.00;;;;;;7378483;19;20436;-48
2022/07/22 07:46:49;;;;;;;10.37;9.13;;;25.10;82.10;;;;;;7375899;19;20403;-47
2022/07/22 07:49:19;;;;;;;12.33;11.03;;;25.10;84.00;;;;;;7375169;19;20368;-47
2022/07/22 07:51:51;;;;;;;8.53;7.57;;;25.20;82.40;;;;;;7376332;19;20373;-48
2022/07/22 07:54:21;;;;;;;11.03;9.93;;;25.20;82.70;;;;;;7373713;19;20391;-48
2022/07/22 07:56:51;;;;;;;16.03;10.40;;;25.20;81.80;;;;;;7378708;19;20379;-47
2022/07/22 07:59:23;;;;;;;10.93;9.93;;;25.10;83.60;;;;;;7377284;19;20379;-50
2022/07/22 08:01:54;;;;;;;9.57;7.97;;;25.00;83.50;;;;;;7377567;19;20718;-50
2022/07/22 08:04:23;;;;;;;11.90;9.00;;;25.30;81.80;;;;;;7376484;19;20368;-50
2022/07/22 08:06:53;;;;;;;11.67;10.20;;;25.60;80.50;;;;;;7376434;19;20371;-50
2022/07/22 08:09:25;;;;;;;11.07;10.07;;;25.90;78.90;;;;;;7375730;19;20420;-50
2022/07/22 08:11:55;;;;;;;11.20;8.70;;;26.10;78.20;;;;;;7374415;19;20388;-50
2022/07/22 08:14:47;;;;;;;9.50;7.70;;;26.30;76.20;;;;;;7370653;19;20412;-50
2022/07/22 08:17:28;;;;;;;11.10;9.83;;;26.50;75.60;;;;;;7372396;19;20394;-50
2022/07/22 08:19:58;;;;;;;13.97;10.50;;;26.60;73.80;;;;;;7372050;19;20364;-50
2022/07/22 08:22:27;;;;;;;8.27;7.40;;;26.80;72.70;;;;;;7378866;19;20380;-50
2022/07/22 08:24:58;;;;;;;10.73;8.50;;;26.90;71.20;;;;;;7382407;19;20387;-50
2022/07/22 08:27:31;;;;;;;8.93;7.97;;;27.10;70.30;;;;;;7384023;19;20406;-50
2022/07/22 08:30:07;;;;;;;22.30;10.17;;;27.20;69.40;;;;;;7386833;19;20941;-50
2022/07/22 08:32:37;;;;;;;14.30;9.93;;;27.40;68.50;;;;;;7385206;19;20372;-50
2022/07/22 08:35:08;;;;;;;11.60;9.70;;;27.10;69.70;;;;;;7389081;19;20812;-50
2022/07/22 08:37:39;;;;;;;11.93;9.77;;;27.10;69.90;;;;;;7388486;19;21469;-50
2022/07/22 08:40:11;;;;;;;10.60;9.60;;;27.10;69.10;;;;;;7386153;19;20774;-50
2022/07/22 08:42:42;;;;;;;11.90;9.83;;;27.40;68.60;;;;;;7388828;19;20376;-50
2022/07/22 08:45:14;;;;;;;8.20;7.40;;;27.60;67.20;;;;;;7386844;19;20372;-50
2022/07/22 08:47:47;;;;;;;9.60;8.63;;;27.70;65.60;;;;;;7388541;19;20938;-50
2022/07/22 08:50:21;;;;;;;9.87;8.50;;;27.80;65.20;;;;;;7385452;19;20380;-50
2022/07/22 08:53:14;;;;;;;11.20;10.00;;;27.80;66.30;;;;;;7384264;19;20376;-51
2022/07/22 08:55:51;;;;;;;10.23;7.83;;;27.60;66.30;;;;;;7378587;19;20910;-50
2022/07/22 08:58:20;;;;;;;9.70;8.70;;;27.60;65.40;;;;;;7380775;19;20372;-50
2022/07/22 09:01:07;;;;;;;11.33;9.93;;;27.90;64.80;;;;;;7380912;19;20981;-48
2022/07/22 09:03:45;;;;;;;8.03;7.27;;;28.10;65.20;;;;;;7381397;19;20406;-48
2022/07/22 09:06:17;;;;;;;8.77;7.97;;;28.30;62.70;;;;;;7380734;19;20400;-48
2022/07/22 09:08:57;;;;;;;8.57;7.67;;;28.30;63.30;;;;;;7379361;19;20371;-48
2022/07/22 09:11:45;;;;;;;10.13;9.13;;;28.40;62.40;;;;;;7389627;19;20367;-48
2022/07/22 09:14:48;;;;;;;9.23;8.33;;;28.00;61.90;;;;;;7387430;19;20384;-48
2022/07/22 09:17:42;;;;;;;10.03;8.10;;;28.20;61.90;;;;;;7389344;19;20368;-48
2022/07/22 09:20:43;;;;;;;10.93;8.40;;;28.40;61.10;;;;;;7388801;19;20424;-48
2022/07/22 09:23:42;;;;;;;10.97;9.83;;;28.70;60.10;;;;;;7386162;19;20403;-48
2022/07/22 09:26:31;;;;;;;9.50;8.50;;;29.00;59.50;;;;;;7385169;19;20395;-48
2022/07/22 09:29:19;;;;;;;9.50;8.20;;;29.10;59.10;;;;;;7389154;19;20375;-48
2022/07/22 09:32:09;;;;;;;8.60;7.63;;;29.20;58.70;;;;;;7387491;19;20387;-48
2022/07/22 09:35:10;;;;;;;12.07;9.90;;;29.30;58.10;;;;;;7384764;19;20400;-48
2022/07/22 09:37:56;;;;;;;8.80;7.43;;;29.20;58.20;;;;;;7385823;19;20742;-48
2022/07/22 09:40:28;;;;;;;9.57;8.20;;;29.40;58.10;;;;;;7386188;19;20421;-48
2022/07/22 09:43:01;;;;;;;11.83;8.77;;;29.50;57.60;;;;;;7382109;19;20372;-48
2022/07/22 09:45:32;;;;;;;10.40;8.30;;;29.30;57.30;;;;;;7378542;19;20372;-48
2022/07/22 09:48:03;;;;;;;11.23;9.60;;;29.20;57.80;;;;;;7385553;19;20391;-48
2022/07/22 09:50:56;;;;;;;10.40;8.90;;;29.40;57.00;;;;;;7382910;19;20393;-48
2022/07/22 09:53:37;;;;;;;10.53;7.90;;;29.90;55.80;;;;;;7380546;19;20892;-48
2022/07/22 09:56:13;;;;;;;9.13;7.37;;;30.10;55.50;;;;;;7376380;19;20384;-45
2022/07/22 09:58:46;;;;;;;10.47;7.73;;;30.20;54.90;;;;;;7376441;19;20394;-45
2022/07/22 10:01:23;;;;;;;8.30;7.50;;;30.30;54.50;;;;;;7378545;19;20423;-45
2022/07/22 10:03:56;;;;;;;8.03;7.33;;;30.50;54.40;;;;;;7384438;19;20387;-45
2022/07/22 10:06:30;;;;;;;8.33;7.53;;;30.60;54.30;;;;;;7381936;19;20791;-45
2022/07/22 10:09:02;;;;;;;8.80;7.97;;;30.60;53.60;;;;;;7382540;19;20371;-46
2022/07/22 10:11:32;;;;;;;9.53;7.73;;;30.60;53.30;;;;;;7385379;19;20372;-46
2022/07/22 10:14:02;;;;;;;10.40;8.80;;;30.60;52.90;;;;;;7384211;19;20384;-46
2022/07/22 10:16:32;;;;;;;7.93;7.17;;;30.80;52.80;;;;;;7379900;19;20384;-46
2022/07/22 10:19:04;;;;;;;9.17;8.27;;;31.00;52.60;;;;;;7378556;19;20445;-46
2022/07/22 10:21:39;;;;;;;10.10;7.50;;;31.30;51.80;;;;;;7382405;19;20409;-45
2022/07/22 10:24:13;;;;;;;13.10;8.13;;;31.80;51.10;;;;;;7383064;19;20463;-46
2022/07/22 10:26:55;;;;;;;10.10;8.23;;;32.00;50.70;;;;;;7381279;19;20421;-45
2022/07/22 10:29:32;;;;;;;9.60;7.83;;;31.80;50.20;;;;;;7376144;19;20918;-45
2022/07/22 10:32:27;;;;;;;8.70;7.80;;;31.90;50.60;;;;;;7361327;19;20379;-49
2022/07/22 10:35:28;;;;;;;8.80;7.90;;;32.10;49.70;;;;;;7369388;19;20415;-48
2022/07/22 10:38:08;;;;;;;8.17;7.37;;;32.20;49.50;;;;;;7377179;19;20372;-48
2022/07/22 10:40:54;;;;;;;11.03;9.13;;;32.10;49.80;;;;;;7382458;19;20419;-48
2022/07/22 10:43:25;;;;;;;9.23;7.43;;;32.10;49.70;;;;;;7377429;19;20412;-48
2022/07/22 10:45:57;;;;;;;8.67;7.77;;;32.00;49.80;;;;;;7374374;19;20376;-49
2022/07/22 10:48:47;;;;;;;9.03;7.50;;;32.60;48.70;;;;;;7365937;19;20871;-49
2022/07/22 10:51:21;;;;;;;8.13;7.37;;;32.90;48.20;;;;;;7372645;19;20973;-50
2022/07/22 10:53:56;;;;;;;8.30;7.40;;;33.00;47.30;;;;;;7375380;19;20401;-49
2022/07/22 10:56:33;;;;;;;9.10;7.07;;;33.10;47.50;;;;;;7376730;19;20372;-50
2022/07/22 10:59:13;;;;;;;8.03;7.13;;;33.50;46.80;;;;;;7372053;19;20372;-50
2022/07/22 11:01:47;;;;;;;8.60;7.43;;;33.80;46.60;;;;;;7374992;19;20376;-47
2022/07/22 11:04:19;;;;;;;8.90;8.00;;;34.10;45.40;;;;;;7378703;19;20556;-47
2022/07/22 11:06:50;;;;;;;41.37;13.53;;;33.80;45.50;;;;;;7377796;19;20372;-47
2022/07/22 11:09:33;;;;;;;7.97;7.27;;;34.00;45.60;;;;;;7367781;19;20376;-46
2022/07/22 11:12:04;;;;;;;8.90;7.37;;;33.90;45.30;;;;;;7379484;19;20395;-49
2022/07/22 11:14:37;;;;;;;8.53;7.40;;;33.90;45.80;;;;;;7378591;19;20357;-49
2022/07/22 11:17:09;;;;;;;8.20;7.40;;;34.00;45.30;;;;;;7372356;19;20372;-49
2022/07/22 11:19:40;;;;;;;8.30;7.33;;;34.30;44.40;;;;;;7379991;19;20380;-49
2022/07/22 11:22:12;;;;;;;7.93;7.30;;;34.30;44.70;;;;;;7380020;19;20384;-49
2022/07/22 11:24:45;;;;;;;8.87;7.40;;;34.40;44.30;;;;;;7383974;19;20386;-49
2022/07/22 11:27:17;;;;;;;8.03;7.23;;;34.60;44.30;;;;;;7380448;19;21054;-49
2022/07/22 11:29:52;;;;;;;7.43;6.70;;;34.70;43.80;;;;;;7375895;19;20472;-49
2022/07/22 11:32:23;;;;;;;7.27;6.57;;;34.80;43.60;;;;;;7379917;19;21529;-49
2022/07/22 11:34:53;;;;;;;7.70;6.30;;;34.30;40.30;;;;;;7382327;19;20376;-47
2022/07/22 11:37:24;;;;;;;6.70;6.10;;;34.00;41.80;;;;;;7370684;19;20384;-46
2022/07/22 11:40:02;;;;;;;7.20;6.43;;;33.70;42.50;;;;;;7361678;19;20924;-46
2022/07/22 11:42:31;;;;;;;8.70;7.70;;;33.40;42.70;;;;;;7370497;19;20948;-47
2022/07/22 11:45:01;;;;;;;6.77;6.17;;;33.30;42.30;;;;;;7368967;19;20380;-48
2022/07/22 11:47:31;;;;;;;6.73;6.13;;;33.50;42.40;;;;;;7348631;19;20369;-47
2022/07/22 11:50:02;;;;;;;6.63;6.03;;;33.50;42.40;;;;;;7366584;19;20393;-47
2022/07/22 11:52:32;;;;;;;8.27;7.07;;;33.50;40.80;;;;;;7368426;19;20420;-47
2022/07/22 11:55:04;;;;;;;7.03;6.00;;;33.70;41.70;;;;;;7366609;19;20464;-47
2022/07/22 11:57:33;;;;;;;7.20;6.13;;;33.90;42.10;;;;;;7384653;19;20417;-47
2022/07/22 12:00:11;;;;;;;7.03;6.43;;;34.30;41.80;;;;;;7378064;19;20424;-47
2022/07/22 12:02:42;;;;;;;6.70;6.10;;;34.30;41.20;;;;;;7388696;19;20817;-48
2022/07/22 12:05:11;;;;;;;6.83;6.20;;;34.30;41.50;;;;;;7386040;19;20937;-47
2022/07/22 12:07:41;;;;;;;6.53;5.80;;;34.70;41.40;;;;;;7380954;19;20909;-48
2022/07/22 12:10:13;;;;;;;7.80;6.70;;;35.00;40.60;;;;;;7389507;19;20431;-47
2022/07/22 12:12:49;;;;;;;8.27;6.70;;;34.90;40.70;;;;;;7378604;19;20386;-47
2022/07/22 12:15:20;;;;;;;6.87;6.27;;;34.50;40.90;;;;;;7373323;19;20506;-47
2022/07/22 12:17:52;;;;;;;6.90;6.30;;;34.10;41.70;;;;;;7372023;19;20364;-47
2022/07/22 12:20:27;;;;;;;7.23;6.53;;;34.10;42.20;;;;;;7378042;19;20372;-47
2022/07/22 12:22:56;;;;;;;7.30;5.97;;;34.30;41.20;;;;;;7372674;19;20371;-48
2022/07/22 12:25:29;;;;;;;7.17;6.47;;;34.50;41.10;;;;;;7378829;19;21323;-48
2022/07/22 12:28:04;;;;;;;6.97;5.87;;;34.70;40.00;;;;;;7389960;19;20379;-48
2022/07/22 12:30:35;;;;;;;7.37;6.10;;;34.30;39.70;;;;;;7384256;19;20495;-47
2022/07/22 12:33:16;;;;;;;6.40;5.80;;;34.10;39.60;;;;;;7379979;19;20367;-47
2022/07/22 12:35:46;;;;;;;6.07;5.57;;;34.00;39.90;;;;;;7388123;19;20450;-48
2022/07/22 12:38:16;;;;;;;6.20;5.70;;;33.80;39.00;;;;;;7383843;19;20393;-48
2022/07/22 12:40:48;;;;;;;7.10;6.37;;;33.90;40.00;;;;;;7388134;19;20447;-52
2022/07/22 12:43:18;;;;;;;7.13;6.43;;;34.40;39.50;;;;;;7384502;19;20409;-52
2022/07/22 12:45:49;;;;;;;7.23;5.97;;;34.50;39.80;;;;;;7380977;19;20371;-52
2022/07/22 12:48:19;;;;;;;7.13;6.40;;;34.60;39.90;;;;;;7384858;19;20380;-53
2022/07/22 12:51:02;;;;;;;7.73;6.60;;;34.60;40.30;;;;;;7378916;19;20404;-52
2022/07/22 12:53:33;;;;;;;7.50;6.53;;;34.70;40.50;;;;;;7386879;19;20906;-52
2022/07/22 12:56:10;;;;;;;7.40;6.70;;;34.70;40.50;;;;;;7381867;19;20367;-52
2022/07/22 12:58:41;;;;;;;7.43;6.40;;;34.80;40.40;;;;;;7379086;19;20758;-52
2022/07/22 13:01:13;;;;;;;8.30;6.27;;;35.00;40.00;;;;;;7376921;19;20982;-52
2022/07/22 13:03:45;;;;;;;6.63;6.13;;;35.00;40.00;;;;;;7375262;19;20387;-52
2022/07/22 13:06:15;;;;;;;6.67;5.63;;;34.90;39.60;;;;;;7381014;19;20730;-52
2022/07/22 13:08:44;;;;;;;6.23;5.63;;;34.70;39.40;;;;;;7378546;19;20759;-53
2022/07/22 13:11:17;;;;;;;6.30;5.80;;;33.90;40.10;;;;;;7383983;19;20416;-52
2022/07/22 13:13:47;;;;;;;6.23;5.60;;;33.60;40.60;;;;;;7366164;19;20368;-53
2022/07/22 13:16:16;;;;;;;6.43;5.83;;;33.50;41.10;;;;;;7384530;19;20369;-52
2022/07/22 13:18:48;;;;;;;7.93;5.70;;;33.40;41.10;;;;;;7355127;19;21589;-52